createdAt,value
2022-12-01T00:00:56.575Z,104262.25
2022-12-01T00:06:20.474Z,104270.03
2022-12-01T00:11:23.585Z,104267.44
2022-12-01T00:16:26.808Z,104253.66
2022-12-01T00:21:29.929Z,104252.78
2022-12-01T00:26:33.044Z,104257.09
2022-12-01T00:31:38.836Z,104251.94
2022-12-01T00:36:41.990Z,104256.25
2022-12-01T00:41:45.109Z,104255.41
2022-12-01T00:46:48.210Z,104259.72
2022-12-01T00:51:53.875Z,104258.00
2022-12-01T00:56:57.054Z,104258.84
2022-12-01T01:02:00.520Z,104253.66
2022-12-01T01:07:04.879Z,104247.66
2022-12-01T01:12:08.045Z,104244.22
2022-12-01T01:17:11.176Z,104238.16
2022-12-01T01:22:14.370Z,104235.56
2022-12-01T01:27:17.614Z,104236.47
2022-12-01T01:32:21.176Z,104221.78
2022-12-01T01:37:25.557Z,104230.41
2022-12-01T01:42:28.716Z,104224.38
2022-12-01T01:47:40.275Z,104228.69
2022-12-01T01:52:51.991Z,104242.47
2022-12-01T01:57:55.259Z,104240.75
2022-12-01T02:02:58.714Z,104240.78
2022-12-01T02:08:03.157Z,104245.94
2022-12-01T02:13:39.103Z,104240.78
2022-12-01T02:18:57.281Z,104248.53
2022-12-01T02:24:26.440Z,104251.97
2022-12-01T02:29:48.375Z,104252.84
2022-12-01T02:35:05.930Z,104247.66
2022-12-01T02:40:19.786Z,104258.84
2022-12-01T02:45:32.681Z,104266.59
2022-12-01T02:50:38.504Z,104264.91
2022-12-01T02:55:54.328Z,104262.31
2022-12-01T03:01:12.233Z,104262.31
2022-12-01T03:06:22.959Z,104258.88
2022-12-01T03:11:46.187Z,104272.66
2022-12-01T03:16:54.704Z,104258.00
2022-12-01T03:22:06.044Z,104270.06
2022-12-01T03:27:11.529Z,104270.06
2022-12-01T03:32:20.891Z,104273.50
2022-12-01T03:37:33.112Z,104280.41
2022-12-01T03:42:44.443Z,104264.88
2022-12-01T03:47:47.814Z,104281.25
2022-12-01T03:52:51.144Z,104284.69
2022-12-01T03:58:07.949Z,104301.03
2022-12-01T04:03:18.648Z,104282.09
2022-12-01T04:08:22.472Z,104297.59
2022-12-01T04:13:26.173Z,104293.28
2022-12-01T04:18:29.346Z,104285.53
2022-12-01T04:23:50.836Z,104299.31
2022-12-01T04:29:05.748Z,104292.41
2022-12-01T04:34:10.790Z,104298.47
2022-12-01T04:39:14.072Z,104303.59
2022-12-01T04:44:18.087Z,104292.41
2022-12-01T04:49:23.824Z,104315.72
2022-12-01T04:54:27.323Z,104308.81
2022-12-01T04:59:30.434Z,104316.59
2022-12-01T05:04:38.866Z,104325.22
2022-12-01T05:09:42.069Z,104335.59
2022-12-01T05:14:46.308Z,104333.88
2022-12-01T05:20:07.957Z,104333.03
2022-12-01T05:25:11.048Z,104340.81
2022-12-01T05:30:14.299Z,104339.06
2022-12-01T05:35:17.618Z,104335.63
2022-12-01T05:40:20.754Z,104345.13
2022-12-01T05:50:40.933Z,104338.19
2022-12-01T05:55:44.077Z,104351.13
2022-12-01T06:00:47.653Z,104338.97
2022-12-01T06:05:51.324Z,104345.00
2022-12-01T06:10:54.573Z,104340.59
2022-12-01T06:16:03.289Z,104342.25
2022-12-01T06:21:07.504Z,104342.97
2022-12-01T06:26:15.078Z,104340.31
2022-12-01T06:31:18.302Z,104337.56
2022-12-01T06:36:22.469Z,104336.56
2022-12-01T06:41:25.576Z,104335.50
2022-12-01T06:46:28.801Z,104341.38
2022-12-01T06:51:34.450Z,104342.88
2022-12-01T06:56:37.664Z,104332.25
2022-12-01T07:01:40.934Z,104335.44
2022-12-01T07:06:44.252Z,104321.47
2022-12-01T07:11:47.463Z,104312.56
2022-12-01T07:16:50.677Z,104309.56
2022-12-01T07:21:53.839Z,104301.75
2022-12-01T07:26:56.936Z,104315.13
2022-12-01T07:32:00.031Z,104318.78
2022-12-01T07:37:03.176Z,104307.94
2022-12-01T07:42:06.425Z,104300.09
2022-12-01T07:47:09.527Z,104293.53
2022-12-01T07:52:12.713Z,104294.44
2022-12-01T07:57:18.459Z,104285.16
2022-12-01T08:02:59.084Z,104272.47
2022-12-01T08:08:21.089Z,104269.66
2022-12-01T08:13:27.341Z,104269.72
2022-12-01T08:18:30.514Z,104278.41
2022-12-01T08:23:34.724Z,104263.94
2022-12-01T08:28:41.218Z,104260.34
2022-12-01T08:33:44.627Z,104255.03
2022-12-01T08:38:50.739Z,104245.59
2022-12-01T08:43:58.825Z,104240.13
2022-12-01T08:49:26.127Z,104240.81
2022-12-01T08:54:47.604Z,104236.56
2022-12-01T08:59:51.585Z,104236.97
2022-12-01T09:04:54.852Z,104235.59
2022-12-01T09:09:58.219Z,104228.44
2022-12-01T09:15:01.435Z,104221.97
2022-12-01T09:20:05.558Z,104224.31
2022-12-01T09:25:14.954Z,104212.00
2022-12-01T09:30:18.421Z,104209.22
2022-12-01T09:35:23.511Z,104203.75
2022-12-01T09:40:38.790Z,104193.56
2022-12-01T09:45:47.814Z,104206.50
2022-12-01T09:50:51.089Z,104189.22
2022-12-01T09:55:57.827Z,104183.41
2022-12-01T10:01:04.641Z,104167.94
2022-12-01T10:06:27.207Z,104179.03
2022-12-01T10:11:36.494Z,104177.38
2022-12-01T10:17:02.467Z,104181.56
2022-12-01T10:22:17.444Z,104177.81
2022-12-01T10:27:26.683Z,104180.38
2022-12-01T10:33:02.260Z,104176.97
2022-12-01T10:38:13.070Z,104165.00
2022-12-01T10:43:17.085Z,104177.00
2022-12-01T10:48:23.011Z,104179.81
2022-12-01T10:53:34.541Z,104183.97
2022-12-01T10:58:56.300Z,104185.22
2022-12-01T11:04:08.761Z,104187.16
2022-12-01T11:09:26.194Z,104180.59
2022-12-01T11:14:44.208Z,104182.38
2022-12-01T11:19:47.849Z,104181.22
2022-12-01T11:24:54.025Z,104187.41
2022-12-01T11:30:05.089Z,104171.06
2022-12-01T11:35:14.363Z,104167.19
2022-12-01T11:40:26.480Z,104168.28
2022-12-01T11:45:40.536Z,104159.47
2022-12-01T11:50:59.848Z,104162.13
2022-12-01T11:56:23.861Z,104162.56
2022-12-01T12:07:16.107Z,104159.69
2022-12-01T12:12:19.223Z,104159.75
2022-12-01T12:17:37.930Z,104153.75
2022-12-01T12:23:32.119Z,104148.59
2022-12-01T12:28:56.938Z,104142.75
2022-12-01T12:34:25.259Z,104144.81
2022-12-01T12:39:55.148Z,104133.91
2022-12-01T12:45:41.648Z,104141.00
2022-12-01T12:51:13.309Z,104138.81
2022-12-01T12:56:21.090Z,104123.50
2022-12-01T13:01:34.603Z,104121.97
2022-12-01T13:06:46.284Z,104135.03
2022-12-01T13:11:56.155Z,104134.50
2022-12-01T13:17:08.348Z,104133.97
2022-12-01T13:22:14.549Z,104134.88
2022-12-01T13:27:21.552Z,104136.81
2022-12-01T13:32:45.033Z,104147.50
2022-12-01T13:37:51.357Z,104151.09
2022-12-01T13:43:10.266Z,104141.72
2022-12-01T13:48:30.297Z,104147.06
2022-12-01T13:53:53.111Z,104151.56
2022-12-01T13:58:56.435Z,104134.75
2022-12-01T14:04:11.796Z,104146.00
2022-12-01T14:09:18.023Z,104142.63
2022-12-01T14:14:26.511Z,104143.69
2022-12-01T14:19:44.676Z,104149.06
2022-12-01T14:24:53.338Z,104153.78
2022-12-01T14:29:56.467Z,104146.16
2022-12-01T14:35:06.387Z,104161.09
2022-12-01T14:40:30.673Z,104153.47
2022-12-01T14:46:09.417Z,104152.84
2022-12-01T14:51:34.293Z,104164.38
2022-12-01T14:56:38.343Z,104156.13
2022-12-01T15:01:41.826Z,104154.66
2022-12-01T15:06:45.659Z,104151.25
2022-12-01T15:11:53.306Z,104149.63
2022-12-01T15:16:57.006Z,104157.66
2022-12-01T15:22:05.607Z,104151.72
2022-12-01T15:27:31.493Z,104163.06
2022-12-01T15:32:39.900Z,104160.47
2022-12-01T15:37:44.671Z,104153.69
2022-12-01T15:43:04.748Z,104167.50
2022-12-01T15:48:19.244Z,104169.41
2022-12-01T15:53:33.137Z,104169.47
2022-12-01T15:58:43.966Z,104168.72
2022-12-01T16:03:59.326Z,104168.81
2022-12-01T16:09:18.896Z,104172.34
2022-12-01T16:14:27.311Z,104161.94
2022-12-01T16:19:34.265Z,104160.47
2022-12-01T16:25:04.612Z,104164.00
2022-12-01T16:30:21.748Z,104160.69
2022-12-01T16:35:29.534Z,104152.06
2022-12-01T16:40:33.268Z,104162.47
2022-12-01T16:45:36.436Z,104173.81
2022-12-01T16:50:40.837Z,104165.28
2022-12-01T16:55:51.478Z,104172.34
2022-12-01T17:06:48.812Z,104159.56
2022-12-01T17:11:51.967Z,104165.75
2022-12-01T17:16:58.660Z,104157.13
2022-12-01T17:22:01.890Z,104151.16
2022-12-01T17:27:06.373Z,104156.34
2022-12-01T17:32:11.251Z,104164.19
2022-12-01T17:37:20.501Z,104159.00
2022-12-01T17:42:24.166Z,104162.56
2022-12-01T17:47:27.652Z,104164.34
2022-12-01T17:52:30.920Z,104159.16
2022-12-01T17:57:34.328Z,104155.78
2022-12-01T18:02:38.901Z,104155.03
2022-12-01T18:07:44.841Z,104158.69
2022-12-01T18:12:49.127Z,104157.94
2022-12-01T18:17:58.846Z,104156.34
2022-12-01T18:23:32.465Z,104151.28
2022-12-01T18:29:52.195Z,104154.06
2022-12-01T18:56:36.535Z,104154.31
2022-12-01T19:02:13.825Z,104158.72
2022-12-01T19:07:55.613Z,104154.41
2022-12-01T19:14:23.665Z,104157.06
2022-12-01T19:20:08.505Z,104158.81
